• Join FlightAware (Why Join?)
  • Login
  • US Flag 
02:49AM EDT


 

Airport Tracker/Info


-or-


 

Live Flight TrackerFlight Track Log ✈ N724AE ✈ 04-Apr-2013 ✈ KCID - KDFW

Flight Track Log - Related Links

Times and Time Zones

All times are in EDT time to prevent confusion due to time zone crossing. See the N724AE flight status page for this flight to view local times or setup timezone preferences in your user account.

Time Position Orientation Groundspeed Altitude Reporting Facility
EDT Latitude Longitude Course Direction KTS MPH feet Rate Location/Type
02:37PM 41.8233 -91.7850 197° South 249 287 4,000  Level Chicago Center
02:38PM 41.5836 -91.8166 194° South  Level FlightAware Approximate
02:38PM 41.7536 -91.8081 194° South 252 290 6,800  Level Chicago Center
02:39PM 41.4832 -91.8550 193° South  Level FlightAware Approximate
02:39PM 41.6803 -91.8414 199° South 276 318 9,100  Level Chicago Center
02:40PM 41.3812 -91.8857 193° South  Level FlightAware Approximate
02:40PM 41.5992 -91.8733 196° South 301 346 10,500  Level Chicago Center
02:41PM 41.2803 -91.9218 197° South  Level FlightAware Approximate
02:41PM 41.4831 -91.9164 196° South 364 419 11,700  Level Chicago Center
02:42PM 41.1794 -91.9632 197° South  Level FlightAware Approximate
02:42PM 41.3819 -91.9528 195° South 377 434 13,100  Level Chicago Center
02:43PM 41.2783 -91.9886 195° South 383 441 14,600 1,500 Climbing Chicago Center
02:44PM 41.1594 -92.0331 196° South 390 449 16,300 1,500 Climbing Chicago Center
02:45PM 41.0564 -92.0683 194° South 387 445 17,700 1,260 Climbing Chicago Center
02:46PM 40.9539 -92.1075 196° South 387 445 19,000 1,320 Climbing Chicago Center
02:47PM 40.8511 -92.1442 195° South 386 444 20,500 1,380 Climbing Chicago Center
02:48PM 40.7453 -92.1814 195° South 393 452 21,900 1,200 Climbing Chicago Center
02:49PM 40.6389 -92.2197 195° South 398 458 23,100 1,140 Climbing Chicago Center
02:50PM 40.5739 -92.2425 195° South 399 459 23,800 1,320 Climbing Kansas City Center
02:51PM 40.4408 -92.2892 195° South 408 470 25,300 1,200 Climbing Kansas City Center
02:52PM 40.3300 -92.3286 195° South 410 472 26,400 1,080 Climbing Kansas City Center
02:53PM 40.2114 -92.3706 195° South 408 470 27,600 1,020 Climbing Kansas City Center
02:54PM 40.1053 -92.4083 195° South 411 473 28,600 960 Climbing Kansas City Center
02:55PM 39.9969 -92.4464 195° South 410 472 29,600 660 Climbing Kansas City Center
02:56PM 39.8828 -92.4856 195° South 419 482 30,000 180 Climbing Kansas City Center
02:57PM 39.7622 -92.5275 195° South 442 509 30,000  Level Kansas City Center
02:58PM 39.6181 -92.5781 195° South 448 516 30,000  Level Kansas City Center
02:59PM 39.4978 -92.6186 195° South 449 517 30,000  Level Kansas City Center
03:00PM 39.3778 -92.6619 196° South 448 516 30,000  Level Kansas City Center
03:01PM 39.2400 -92.7092 195° South 449 517 30,000  Level Kansas City Center
03:02PM 39.1372 -92.7436 195° South 450 518 30,000  Level Kansas City Center
03:03PM 38.9928 -92.7939 195° South 449 517 30,000  Level Kansas City Center
03:04PM 38.8758 -92.8325 194° South 449 517 30,000  Level Kansas City Center
03:05PM 38.7553 -92.8742 195° South 448 516 30,000  Level Kansas City Center
03:06PM 38.6356 -92.9131 194° South 444 511 30,000  Level Kansas City Center
03:07PM 38.4942 -92.9600 195° South 440 506 30,000  Level Kansas City Center
03:08PM 38.3775 -92.9994 195° South 437 503 30,000  Level Kansas City Center
03:09PM 38.2606 -93.0381 195° South 435 501 30,000  Level Kansas City Center
03:11PM 38.1417 -93.0786 195° South 439 505 30,000  Level Kansas City Center
03:12PM 38.0253 -93.1156 194° South 436 502 30,000  Level Kansas City Center
03:13PM 37.9075 -93.1547 195° South 437 503 30,000  Level Kansas City Center
03:14PM 37.7658 -93.2014 195° South 437 503 30,000  Level Kansas City Center
03:15PM 37.6475 -93.2400 194° South 438 504 30,000  Level Kansas City Center
03:16PM 37.5292 -93.2786 195° South 439 505 30,000  Level Kansas City Center
03:17PM 37.4103 -93.3169 194° South 439 505 30,000  Level Kansas City Center
03:18PM 37.2992 -93.3739 202° Southwest 436 502 30,000  Level Kansas City Center
03:19PM 37.1936 -93.4508 210° Southwest 437 503 30,000  Level Kansas City Center
03:20PM 37.0664 -93.5417 210° Southwest 437 503 30,000  Level Kansas City Center
03:21PM 36.9619 -93.6183 210° Southwest 436 502 30,000  Level Kansas City Center
03:22PM 36.8567 -93.6900 209° Southwest 439 505 30,000  Level Kansas City Center
03:23PM 36.7508 -93.7653 210° Southwest 440 506 30,000  Level Kansas City Center
03:24PM 36.6369 -93.8450 209° Southwest 439 505 30,000  Level Kansas City Center
03:24PM 36.5928 -93.8692 204° Southwest 440 506 30,000  Level Memphis Center
03:25PM 36.5233 -93.9053 203° Southwest 442 509 30,000  Level Kansas City Center
03:26PM 36.4089 -93.9650 203° Southwest 444 511 30,000  Level Kansas City Center
03:26PM 36.3642 -93.9908 205° Southwest 445 512 30,000  Level Memphis Center
03:27PM 36.2628 -94.0428 202° Southwest 445 512 30,000  Level Memphis Center
03:28PM 36.1483 -94.0994 202° Southwest 445 512 30,000  Level Memphis Center
03:29PM 36.0317 -94.1633 204° Southwest 445 512 30,000  Level Memphis Center
03:30PM 35.9175 -94.2222 203° Southwest 445 512 30,000  Level Memphis Center
03:31PM 35.8028 -94.2833 203° Southwest 451 519 30,000  Level Memphis Center
03:32PM 35.6864 -94.3417 202° Southwest 451 519 30,000  Level Memphis Center
03:33PM 35.5697 -94.4000 202° Southwest 451 519 30,000  Level Memphis Center
03:34PM 35.4550 -94.4606 203° Southwest 451 519 30,000  Level Memphis Center
03:35PM 35.3344 -94.5158 201° Southwest 457 526 30,000  Level Memphis Center
03:36PM 35.2197 -94.5761 203° Southwest 457 526 30,000  Level Memphis Center
03:37PM 35.1011 -94.6336 202° Southwest 462 532 30,000  Level Memphis Center
03:38PM 34.9872 -94.7094 209° Southwest 469 540 30,000  Level Fort Worth Center
03:39PM 34.8914 -94.8164 222° Southwest 458 527 30,000  Level Fort Worth Center
03:40PM 34.7975 -94.9153 221° Southwest 458 527 30,000  Level Fort Worth Center
03:41PM 34.7014 -95.0142 220° Southwest 458 527 30,000  Level Fort Worth Center
03:42PM 34.6031 -95.1203 222° Southwest 463 533 30,000  Level Fort Worth Center
03:43PM 34.5050 -95.2261 222° Southwest 469 540 30,000 -720 Level Fort Worth Center
03:44PM 34.4044 -95.3319 221° Southwest 479 551 28,600 -1,500 Descending Fort Worth Center
03:45PM 34.3058 -95.4347 221° Southwest 479 551 27,100 -1,440 Descending Fort Worth Center
03:46PM 34.2053 -95.5403 221° Southwest 479 551 25,800 -1,380 Descending Fort Worth Center
03:47PM 34.1025 -95.6478 221° Southwest 479 551 24,400 -900 Descending Fort Worth Center
03:48PM 34.0203 -95.7397 223° Southwest 467 537 24,000 -240 Descending Fort Worth Center
03:49PM 33.9194 -95.8417 220° Southwest 472 543 24,000  Level Fort Worth Center
03:50PM 33.8206 -95.9458 221° Southwest 478 550 24,000  Level Fort Worth Center
03:51PM 33.7194 -96.0475 220° Southwest 478 550 24,000 -1,140 Level Fort Worth Center
03:52PM 33.6161 -96.1539 221° Southwest 465 535 21,800 -2,580 Descending Fort Worth Center
03:53PM 33.5333 -96.2397 221° Southwest 443 510 18,900 -2,700 Descending Fort Worth Center
03:54PM 33.4447 -96.3456 225° Southwest 421 484 16,400 -2,220 Descending Fort Worth Center
03:55PM 33.3786 -96.4258 225° Southwest 396 456 14,600 -1,980 Descending Fort Worth Center
03:56PM 33.3019 -96.5161 225° Southwest 361 415 12,500 -1,800 Descending Fort Worth Center
03:57PM 33.2378 -96.5939 225° Southwest 339 390 11,000 -780 Descending Fort Worth Center
03:58PM 33.1819 -96.6614 225° Southwest 322 371 11,000  Level Fort Worth Center
03:59PM 33.1156 -96.7414 225° Southwest 317 365 11,000  Level Fort Worth Center
04:00PM 33.0667 -96.7833 216° Southwest 297 342 11,000  Level Dallas / Fort Worth TRACON
04:01PM 33.0167 -96.8500 228° Southwest 266 306 11,000 -60 Level Dallas / Fort Worth TRACON
04:02PM 32.9500 -96.9000 212° Southwest 271 312 10,900 -780 Descending Dallas / Fort Worth TRACON
04:03PM 32.8833 -96.9000 180° South 287 330 9,500 -1,500 Descending Dallas / Fort Worth TRACON
04:04PM 32.8000 -96.9000 180° South 274 315 8,000 -1,500 Descending Dallas / Fort Worth TRACON
04:05PM 32.7333 -96.9000 180° South 262 302 6,500 -1,020 Descending Dallas / Fort Worth TRACON
04:06PM 32.6667 -96.9167 192° South 248 285 6,000 -300 Descending Dallas / Fort Worth TRACON
04:07PM 32.6000 -96.9500 203° Southwest 245 282 5,900 -540 Descending Dallas / Fort Worth TRACON
04:08PM 32.6000 -97.0167 270° West 220 253 5,000 -720 Descending Dallas / Fort Worth TRACON
04:08PM 32.6072 -97.0336 297° West 180 207 5,000 -420 Level Fort Worth Center
04:09PM 32.6500 -97.0500 342° North 199 229 4,600 -900 Descending Dallas / Fort Worth TRACON
04:10PM 32.7000 -97.0500 360° North 215 247 3,500 -1,140 Descending Dallas / Fort Worth TRACON